Time;durP1;ratioP1;P1;durP2;ratioP2;P2;SDS_P1;SDS_P2;PMS_P1;PMS_P2;Temp;Humidity;BMP_temperature;BMP_pressure;BME280_temperature;BME280_humidity;BME280_pressure;Samples;Min_cycle;Max_cycle;Signal;HPM_P1;HPM_P2
2022/01/26 00:07:26;;;;;;;46.40;24.20;;;;;;;3.05;71.96;99996.61;221110;1276;139320;-60
2022/01/26 00:12:29;;;;;;;43.10;23.40;;;;;;;3.00;72.02;99993.02;221187;1276;139604;-60
2022/01/26 00:17:32;;;;;;;43.20;24.40;;;;;;;2.97;72.16;99992.89;220980;1276;139869;-60
2022/01/26 00:33:07;;;;;;;43.20;24.00;;;;;;;3.01;72.30;99992.65;221217;1276;139961;-60
2022/01/26 00:43:33;;;;;;;43.30;23.80;;;;;;;3.15;72.28;99999.09;221354;1276;139894;-59
2022/01/26 00:48:38;;;;;;;37.70;22.00;;;;;;;3.14;72.10;100002.44;221051;1276;139392;-58
2022/01/26 00:53:45;;;;;;;41.10;23.20;;;;;;;3.09;72.21;100004.62;221020;1276;139996;-60
2022/01/26 00:58:48;;;;;;;42.40;22.80;;;;;;;3.08;72.17;100003.23;221064;1276;139625;-60
2022/01/26 01:03:52;;;;;;;40.20;22.20;;;;;;;3.08;72.16;100001.29;221332;1276;139876;-60
2022/01/26 01:08:57;;;;;;;41.20;22.60;;;;;;;3.14;72.28;99994.38;221231;1275;139993;-59
2022/01/26 01:14:00;;;;;;;37.90;21.90;;;;;;;3.17;72.26;99987.48;221399;1275;140793;-59
2022/01/26 01:19:10;;;;;;;35.30;21.60;;;;;;;3.21;72.30;99984.61;221369;1274;139719;-60
2022/01/26 01:29:29;;;;;;;35.90;20.40;;;;;;;3.13;72.22;99972.83;221103;1276;140380;-60
2022/01/26 01:34:37;;;;;;;34.80;19.90;;;;;;;3.12;72.04;99984.08;221243;1275;141019;-60
2022/01/26 01:39:40;;;;;;;32.40;20.30;;;;;;;3.15;72.21;99985.41;221277;1275;139834;-60
2022/01/26 01:44:44;;;;;;;36.80;20.60;;;;;;;3.17;72.30;99982.23;221328;1277;139356;-60
2022/01/26 01:49:47;;;;;;;34.10;19.70;;;;;;;3.17;72.21;99977.67;221332;1276;139974;-60
2022/01/26 01:54:53;;;;;;;37.00;22.00;;;;;;;3.17;72.23;99978.55;221308;1276;139932;-60
2022/01/26 01:59:56;;;;;;;36.40;19.80;;;;;;;3.15;72.21;99971.39;221241;1276;139592;-60
2022/01/26 02:04:59;;;;;;;31.20;17.10;;;;;;;3.12;72.12;99970.38;221455;1276;139926;-57
2022/01/26 02:10:03;;;;;;;27.70;16.80;;;;;;;3.11;72.01;99963.94;221250;1276;139430;-60
2022/01/26 02:15:14;;;;;;;30.00;18.00;;;;;;;3.10;72.05;99964.11;221243;1276;140760;-60
2022/01/26 02:58:02;;;;;;;30.40;18.40;;;;;;;3.03;72.58;99949.00;221354;1275;139795;-59
2022/01/26 03:08:42;;;;;;;28.10;16.30;;;;;;;3.11;72.68;99945.54;220507;1277;139750;-58
2022/01/26 03:13:52;;;;;;;27.50;17.00;;;;;;;3.15;72.46;99934.39;221141;1277;139795;-58
2022/01/26 03:29:43;;;;;;;20.00;13.50;;;;;;;3.12;72.42;99929.02;221248;1276;139452;-58
2022/01/26 03:34:52;;;;;;;21.10;14.40;;;;;;;3.08;72.33;99931.17;221126;1277;140283;-60
2022/01/26 03:39:55;;;;;;;24.30;15.40;;;;;;;3.07;72.37;99933.11;221222;1276;139807;-58
2022/01/26 03:44:58;;;;;;;24.80;15.80;;;;;;;3.08;72.41;99929.09;221365;1277;139168;-60
2022/01/26 03:50:02;;;;;;;24.50;16.50;;;;;;;3.05;72.31;99926.15;221513;1276;139769;-59
2022/01/26 03:55:05;;;;;;;28.20;17.80;;;;;;;3.00;72.35;99922.20;221367;1275;139799;-59
2022/01/26 04:00:09;;;;;;;24.40;17.40;;;;;;;2.99;72.52;99931.16;220960;1277;140373;-59
2022/01/26 04:05:15;;;;;;;25.80;16.70;;;;;;;3.02;72.78;99934.27;221328;1276;139989;-61
2022/01/26 04:10:35;;;;;;;25.30;17.30;;;;;;;3.07;72.85;99930.32;221099;1277;177302;-64
2022/01/26 04:15:38;;;;;;;25.10;17.50;;;;;;;3.08;72.62;99932.41;221356;1275;140094;-63
2022/01/26 04:20:46;;;;;;;29.10;17.80;;;;;;;3.02;72.51;99923.58;221372;1274;139495;-61
2022/01/26 04:25:50;;;;;;;32.80;20.00;;;;;;;2.98;72.58;99919.96;221439;1277;139089;-61
2022/01/26 04:30:53;;;;;;;31.30;17.70;;;;;;;2.97;72.58;99922.60;221296;1274;139894;-60
2022/01/26 04:35:56;;;;;;;26.40;17.90;;;;;;;2.99;72.62;99918.89;221389;1275;139731;-60
2022/01/26 04:46:21;;;;;;;30.30;19.00;;;;;;;2.98;72.73;99914.35;221307;1275;140479;-59
2022/01/26 04:51:24;;;;;;;29.10;17.30;;;;;;;2.97;72.87;99907.17;221185;1275;141057;-60
2022/01/26 04:56:27;;;;;;;25.90;16.60;;;;;;;2.92;72.71;99904.29;221278;1275;139832;-58
2022/01/26 05:01:30;;;;;;;27.60;17.00;;;;;;;2.86;72.89;99904.92;221434;1276;140371;-60
2022/01/26 05:06:33;;;;;;;27.20;17.50;;;;;;;2.80;72.79;99901.34;221371;1276;140302;-58
2022/01/26 05:11:40;;;;;;;27.50;17.10;;;;;;;2.72;72.84;99903.75;221260;1276;139675;-57
2022/01/26 05:16:43;;;;;;;25.60;16.80;;;;;;;2.71;73.15;99905.52;221253;1275;140740;-59
2022/01/26 05:21:46;;;;;;;26.50;16.90;;;;;;;2.74;73.07;99892.86;221273;1275;139710;-59
2022/01/26 05:26:49;;;;;;;28.80;16.80;;;;;;;2.73;73.10;99882.36;221394;1276;140543;-59
2022/01/26 05:31:52;;;;;;;25.50;16.50;;;;;;;2.72;73.10;99885.87;221423;1276;139384;-59
2022/01/26 05:36:55;;;;;;;23.50;15.00;;;;;;;2.79;73.41;99880.86;221282;1275;140523;-60
2022/01/26 05:42:03;;;;;;;23.10;15.30;;;;;;;2.87;73.39;99899.11;221209;1276;140233;-60
2022/01/26 05:47:09;;;;;;;22.60;15.70;;;;;;;2.90;73.17;99898.72;221377;1276;140291;-61
2022/01/26 05:52:12;;;;;;;25.40;17.20;;;;;;;2.93;73.20;99899.54;221302;1277;139780;-60
2022/01/26 05:57:15;;;;;;;26.70;17.40;;;;;;;2.95;73.22;99898.10;221309;1275;140017;-62
2022/01/26 06:02:18;;;;;;;27.90;17.40;;;;;;;2.92;72.98;99895.53;221202;1274;139419;-61
2022/01/26 06:07:21;;;;;;;24.90;17.20;;;;;;;2.87;72.92;99894.92;221230;1274;140299;-59
2022/01/26 06:12:24;;;;;;;25.50;17.00;;;;;;;2.87;73.07;99892.63;221095;1275;139453;-61
2022/01/26 06:17:27;;;;;;;22.70;15.60;;;;;;;2.88;73.15;99887.17;221183;1276;139355;-60
2022/01/26 06:22:30;;;;;;;29.60;17.80;;;;;;;2.88;73.17;99887.20;220941;1276;139555;-60
2022/01/26 06:27:35;;;;;;;31.30;19.00;;;;;;;2.90;73.07;99892.41;221283;1275;140715;-60
2022/01/26 06:32:38;;;;;;;26.90;16.60;;;;;;;2.93;73.08;99886.92;221056;1277;141610;-59
2022/01/26 06:37:44;;;;;;;28.30;17.60;;;;;;;2.94;73.11;99882.52;221306;1276;139201;-61
2022/01/26 06:42:56;;;;;;;28.20;16.70;;;;;;;2.96;73.15;99890.21;221237;1274;139504;-60
2022/01/26 06:53:14;;;;;;;26.40;15.50;;;;;;;2.93;73.12;99883.25;221329;1276;139558;-61
2022/01/26 06:58:18;;;;;;;31.60;17.60;;;;;;;2.97;73.02;99880.02;221296;1275;140097;-59
2022/01/26 07:03:21;;;;;;;28.80;17.50;;;;;;;3.00;73.09;99884.35;221215;1275;139094;-63
2022/01/26 07:08:24;;;;;;;29.20;18.00;;;;;;;3.04;73.17;99886.55;221137;1275;139488;-65
2022/01/26 07:13:27;;;;;;;27.80;17.00;;;;;;;3.06;73.12;99879.13;221377;1275;139322;-64
2022/01/26 07:23:58;;;;;;;32.20;19.60;;;;;;;3.11;73.30;99880.30;221257;1276;139030;-66
2022/01/26 07:29:07;;;;;;;34.30;19.70;;;;;;;3.14;73.21;99879.38;221341;1274;141013;-63
2022/01/26 07:34:12;;;;;;;36.70;21.50;;;;;;;3.15;73.19;99882.31;221193;1275;140272;-59
2022/01/26 07:39:18;;;;;;;36.10;21.60;;;;;;;3.13;73.01;99881.14;221294;1275;139456;-61
2022/01/26 07:44:21;;;;;;;39.00;21.60;;;;;;;3.11;73.16;99879.78;221222;1276;140040;-62
2022/01/26 07:49:24;;;;;;;46.60;25.20;;;;;;;3.13;73.05;99885.33;221419;1274;139638;-61
2022/01/26 07:54:27;;;;;;;40.30;25.20;;;;;;;3.24;73.29;99885.32;221232;1275;140221;-61
2022/01/26 07:59:30;;;;;;;40.40;22.90;;;;;;;3.45;73.67;99880.88;221307;1276;138909;-63
2022/01/26 08:04:33;;;;;;;38.80;22.10;;;;;;;3.42;73.13;99876.73;221410;1276;139312;-65
2022/01/26 08:09:42;;;;;;;39.40;24.10;;;;;;;3.38;72.95;99876.64;221085;1276;139651;-63
2022/01/26 08:14:45;;;;;;;85.10;53.10;;;;;;;3.38;73.03;99877.34;221075;1276;140551;-65
2022/01/26 08:19:52;;;;;;;51.30;27.70;;;;;;;3.46;73.51;99880.68;221373;1276;139844;-64
2022/01/26 08:24:55;;;;;;;49.80;28.40;;;;;;;3.45;72.91;99877.02;221334;1276;139142;-64
2022/01/26 08:30:05;;;;;;;46.40;26.60;;;;;;;3.38;72.91;99876.83;221265;1274;139291;-62
2022/01/26 08:35:09;;;;;;;43.00;26.10;;;;;;;3.33;72.86;99875.50;221354;1274;140926;-62
2022/01/26 08:40:12;;;;;;;42.80;25.80;;;;;;;3.34;72.99;99884.79;221301;1276;141363;-63
2022/01/26 08:45:15;;;;;;;43.40;26.50;;;;;;;3.34;72.89;99890.92;221326;1276;141571;-64
2022/01/26 08:50:18;;;;;;;47.40;28.50;;;;;;;3.34;72.96;99893.73;221255;1274;140840;-64
2022/01/26 08:55:21;;;;;;;47.30;27.10;;;;;;;3.35;72.96;99896.15;221392;1276;139485;-68
2022/01/26 09:00:24;;;;;;;45.20;27.40;;;;;;;3.35;72.92;99894.93;221183;1276;142438;-64
2022/01/26 09:05:27;;;;;;;42.30;24.40;;;;;;;3.38;72.68;99899.45;221154;1276;139805;-62
2022/01/26 09:10:33;;;;;;;105.00;60.30;;;;;;;3.40;73.18;99903.08;221209;1275;139563;-67
2022/01/26 09:15:39;;;;;;;47.10;27.10;;;;;;;3.60;73.51;99904.61;221361;1274;139229;-66
2022/01/26 09:20:42;;;;;;;45.00;26.40;;;;;;;3.62;73.17;99905.66;221341;1275;139514;-62
2022/01/26 09:25:45;;;;;;;40.00;24.20;;;;;;;3.55;72.91;99905.77;221419;1275;139763;-66
2022/01/26 09:30:48;;;;;;;37.40;22.80;;;;;;;3.52;72.77;99904.42;221363;1275;139514;-58
2022/01/26 09:35:51;;;;;;;41.80;24.50;;;;;;;3.52;72.78;99908.27;221201;1275;139902;-68
2022/01/26 09:40:54;;;;;;;40.50;24.50;;;;;;;3.56;72.91;99904.36;220945;1276;139584;-67
2022/01/26 09:45:57;;;;;;;39.50;24.00;;;;;;;3.59;73.04;99906.57;221270;1276;139808;-58
2022/01/26 09:51:01;;;;;;;35.90;21.30;;;;;;;3.61;72.79;99903.91;221369;1276;140342;-64
2022/01/26 09:56:04;;;;;;;50.30;28.90;;;;;;;3.63;73.21;99898.08;221506;1277;139981;-59
2022/01/26 10:01:08;;;;;;;42.80;24.10;;;;;;;3.77;73.30;99895.68;221159;1275;139877;-60
2022/01/26 10:06:26;;;;;;;40.00;25.10;;;;;;;3.85;73.24;99897.60;221312;1274;139903;-60
2022/01/26 10:22:00;;;;;;;43.90;26.90;;;;;;;3.78;72.58;99887.05;221325;1276;139414;-65
2022/01/26 10:27:03;;;;;;;54.30;28.40;;;;;;;3.79;72.96;99884.77;221426;1275;139803;-58
2022/01/26 10:32:13;;;;;;;50.50;27.30;;;;;;;3.82;72.67;99884.00;221367;1276;139751;-61
2022/01/26 10:37:20;;;;;;;39.90;24.60;;;;;;;3.78;72.64;99880.38;221138;1276;140905;-60
2022/01/26 10:42:25;;;;;;;44.80;27.40;;;;;;;3.78;72.75;99873.02;221295;1276;139904;-60
2022/01/26 10:47:35;;;;;;;62.10;35.00;;;;;;;3.79;72.89;99868.80;221066;1275;139745;-60
2022/01/26 10:52:39;;;;;;;50.20;28.70;;;;;;;3.87;73.55;99861.43;221186;1276;141414;-62
2022/01/26 10:57:43;;;;;;;50.00;28.20;;;;;;;4.05;73.31;99851.90;221257;1276;140281;-58
2022/01/26 11:02:48;;;;;;;40.90;24.70;;;;;;;4.01;72.82;99850.75;221007;1276;139715;-62
2022/01/26 11:07:52;;;;;;;44.50;25.90;;;;;;;3.96;72.70;99850.70;221295;1275;140034;-60
2022/01/26 11:12:55;;;;;;;49.00;28.30;;;;;;;3.85;72.32;99852.34;221055;1277;139556;-60
2022/01/26 11:18:29;;;;;;;55.40;30.40;;;;;;;3.76;72.64;99849.18;221342;1276;139659;-62
2022/01/26 11:23:35;;;;;;;71.40;37.80;;;;;;;3.73;73.23;99845.94;221061;1276;140558;-61
2022/01/26 11:28:45;;;;;;;45.00;26.70;;;;;;;3.89;73.07;99841.55;221179;1275;139497;-61
2022/01/26 11:33:49;;;;;;;46.40;26.80;;;;;;;3.79;72.66;99841.58;221387;1276;141104;-60
2022/01/26 11:49:27;;;;;;;42.10;24.00;;;;;;;3.68;72.83;99824.98;221314;1274;140186;-63
2022/01/26 11:54:50;;;;;;;46.40;26.80;;;;;;;3.61;73.10;99818.63;221232;1275;140077;-61
2022/01/26 12:00:00;;;;;;;44.00;25.00;;;;;;;3.66;73.00;99815.54;221059;1276;140220;-62
2022/01/26 12:05:07;;;;;;;60.90;33.50;;;;;;;3.68;73.07;99813.05;221162;1276;139995;-60
2022/01/26 12:10:18;;;;;;;50.00;28.20;;;;;;;3.66;73.27;99803.27;221023;1276;139226;-62
2022/01/26 12:15:26;;;;;;;48.90;26.50;;;;;;;3.62;73.32;99802.66;221244;1277;139714;-63
2022/01/26 12:37:02;;;;;;;49.80;26.70;;;;;;;3.70;73.33;99788.45;221340;1275;139539;-59
2022/01/26 12:42:16;;;;;;;45.30;25.40;;;;;;;3.67;73.21;99782.19;221260;1276;138943;-60
2022/01/26 12:47:19;;;;;;;44.80;24.40;;;;;;;3.65;73.22;99778.70;221412;1276;140084;-59
2022/01/26 12:52:23;;;;;;;41.40;23.30;;;;;;;3.73;73.50;99782.21;221315;1275;139723;-59
2022/01/26 12:57:25;;;;;;;45.30;25.60;;;;;;;3.78;73.16;99772.45;221275;1275;140202;-56
2022/01/26 13:02:29;;;;;;;44.30;23.90;;;;;;;3.79;73.45;99767.52;221232;1276;139430;-59
2022/01/26 13:07:33;;;;;;;44.20;25.40;;;;;;;3.74;73.22;99762.89;221250;1275;139512;-58
2022/01/26 13:12:36;;;;;;;43.80;24.10;;;;;;;3.71;73.47;99759.82;221192;1276;140166;-59
2022/01/26 13:17:48;;;;;;;39.60;22.10;;;;;;;3.73;73.30;99759.04;221323;1275;140183;-60
2022/01/26 13:23:06;;;;;;;38.70;21.10;;;;;;;3.74;73.33;99754.99;221147;1276;139435;-60
2022/01/26 13:28:27;;;;;;;36.90;21.50;;;;;;;3.75;73.51;99756.03;221344;1276;140447;-60
2022/01/26 13:39:47;;;;;;;32.00;19.80;;;;;;;3.71;73.29;99745.59;220334;1276;140562;-59
2022/01/26 14:00:25;;;;;;;26.30;15.60;;;;;;;3.74;73.08;99753.06;221369;1277;139443;-61
2022/01/26 14:05:28;;;;;;;20.30;13.00;;;;;;;3.77;73.10;99748.61;221370;1276;139889;-62
2022/01/26 14:10:32;;;;;;;21.60;13.40;;;;;;;3.77;73.19;99756.67;221320;1275;141055;-62
2022/01/26 14:15:43;;;;;;;25.90;14.50;;;;;;;3.80;73.15;99757.50;221102;1276;139741;-62
2022/01/26 14:25:56;;;;;;;22.90;13.90;;;;;;;3.75;73.26;99762.70;221378;1276;139492;-61
2022/01/26 15:30:26;;;;;;;34.00;22.70;;;;;;;3.57;73.17;99746.08;221253;1275;139420;-61
2022/01/26 15:40:02;;;;;;;32.70;20.10;;;;;;;3.48;73.38;99743.11;221079;1275;139636;-60
2022/01/26 16:12:57;;;;;;;26.90;17.30;;;;;;;3.37;73.64;99764.38;220766;1278;139523;-61
2022/01/26 18:51:52;;;;;;;31.40;18.90;;;;;;;3.22;73.72;99722.63;221194;1276;139678;-60
2022/01/26 18:56:58;;;;;;;26.70;17.60;;;;;;;3.24;73.73;99725.92;221254;1274;139297;-62
2022/01/26 19:02:03;;;;;;;27.20;17.70;;;;;;;3.24;73.54;99722.59;221502;1277;140350;-61
2022/01/26 19:07:24;;;;;;;28.00;17.80;;;;;;;3.27;73.68;99721.46;221256;1276;139318;-62
2022/01/26 19:12:31;;;;;;;28.10;19.20;;;;;;;3.30;73.66;99716.52;221167;1276;140262;-61
2022/01/26 19:18:17;;;;;;;45.00;26.10;;;;;;;3.31;73.59;99718.23;221192;1274;140526;-62
2022/01/26 19:23:17;;;;;;;24.00;14.90;;;;;;;3.28;73.70;99713.20;220873;1277;140025;-62
2022/01/26 19:28:29;;;;;;;17.80;12.40;;;;;;;3.33;73.47;99725.38;221245;1276;139434;-62
2022/01/26 19:44:16;;;;;;;14.80;9.60;;;;;;;3.40;73.03;99719.45;221351;1274;139492;-62
2022/01/26 19:55:01;;;;;;;14.70;9.60;;;;;;;3.37;72.86;99706.88;219556;1283;140988;-61
2022/01/26 20:00:05;;;;;;;14.50;10.00;;;;;;;3.37;72.76;99702.50;220825;1276;139579;-61
2022/01/26 20:05:16;;;;;;;16.40;10.60;;;;;;;3.36;72.71;99704.27;220956;1275;139925;-60
2022/01/26 20:10:30;;;;;;;16.10;10.60;;;;;;;3.38;72.84;99698.45;221165;1275;139332;-63
2022/01/26 20:15:33;;;;;;;17.80;11.20;;;;;;;3.37;72.68;99687.23;221184;1276;141556;-63
2022/01/26 20:20:36;;;;;;;16.80;10.20;;;;;;;3.39;72.46;99685.44;221342;1276;140804;-62
2022/01/26 20:25:39;;;;;;;19.30;10.50;;;;;;;3.40;72.57;99682.96;221128;1274;140478;-62
2022/01/26 20:30:45;;;;;;;17.80;12.20;;;;;;;3.43;72.47;99684.83;221079;1275;139044;-62
2022/01/26 20:35:48;;;;;;;115.40;73.00;;;;;;;3.51;72.52;99686.55;221316;1276;139706;-62
2022/01/26 20:40:53;;;;;;;21.50;13.60;;;;;;;3.73;72.71;99693.60;221247;1277;139893;-62
2022/01/26 20:45:56;;;;;;;18.50;11.80;;;;;;;3.65;72.09;99696.77;221074;1276;139406;-62
2022/01/26 20:51:00;;;;;;;17.80;11.10;;;;;;;3.57;71.81;99702.93;221268;1274;140048;-62
2022/01/26 20:56:04;;;;;;;19.60;11.70;;;;;;;3.52;71.89;99702.68;221258;1277;139854;-62
2022/01/26 21:01:07;;;;;;;63.10;43.10;;;;;;;3.50;71.95;99705.18;221182;1277;139751;-62
2022/01/26 21:06:10;;;;;;;26.90;15.60;;;;;;;3.51;72.15;99704.98;221137;1275;139422;-61
2022/01/26 21:11:13;;;;;;;20.10;13.10;;;;;;;3.54;72.04;99702.64;221096;1275;140217;-61
2022/01/26 21:16:17;;;;;;;21.30;12.80;;;;;;;3.49;71.73;99702.23;221375;1276;139500;-62
2022/01/26 21:21:20;;;;;;;19.20;12.90;;;;;;;3.46;71.84;99706.69;221299;1276;140372;-60
2022/01/26 21:26:24;;;;;;;22.90;13.70;;;;;;;3.47;71.84;99696.14;221239;1274;140033;-60
2022/01/26 21:31:28;;;;;;;21.40;12.80;;;;;;;3.45;71.65;99699.51;221080;1276;139647;-59
2022/01/26 21:36:31;;;;;;;22.00;14.20;;;;;;;3.47;71.67;99697.19;221239;1275;139231;-61
2022/01/26 21:41:36;;;;;;;215.40;136.00;;;;;;;3.64;72.74;99703.10;221289;1276;140798;-60
2022/01/26 21:46:42;;;;;;;25.10;15.90;;;;;;;4.17;73.15;99699.02;221350;1275;140940;-62
2022/01/26 21:51:45;;;;;;;26.40;14.90;;;;;;;4.12;71.50;99682.47;221340;1274;140571;-59
2022/01/26 21:56:48;;;;;;;26.20;16.70;;;;;;;4.00;71.37;99692.77;221301;1276;139145;-62
2022/01/26 22:01:51;;;;;;;26.10;16.50;;;;;;;3.87;71.10;99696.23;221459;1276;139034;-63
2022/01/26 22:06:55;;;;;;;26.60;17.60;;;;;;;3.75;70.98;99700.40;221291;1275;139475;-60
2022/01/26 22:12:00;;;;;;;27.70;17.30;;;;;;;3.66;71.45;99700.44;221273;1275;139467;-59
2022/01/26 22:17:03;;;;;;;29.90;17.60;;;;;;;3.61;71.23;99694.42;221331;1276;140544;-61
2022/01/26 22:22:06;;;;;;;23.70;15.10;;;;;;;3.61;71.38;99696.35;221393;1277;140744;-62
2022/01/26 22:27:14;;;;;;;24.40;15.10;;;;;;;3.57;71.20;99693.10;221213;1276;139844;-61
2022/01/26 22:32:17;;;;;;;25.00;15.10;;;;;;;3.51;71.19;99691.48;221362;1276;138985;-61
2022/01/26 22:37:25;;;;;;;22.20;14.90;;;;;;;3.47;71.10;99689.30;221454;1276;139780;-61
2022/01/26 22:42:28;;;;;;;27.70;16.80;;;;;;;3.39;71.21;99687.55;221347;1275;140285;-60
2022/01/26 22:47:31;;;;;;;26.00;14.90;;;;;;;3.37;71.17;99681.81;221259;1276;140425;-61
2022/01/26 22:52:34;;;;;;;22.80;15.10;;;;;;;3.40;71.24;99673.69;221366;1275;139625;-61
2022/01/26 22:57:37;;;;;;;25.50;15.40;;;;;;;3.41;71.17;99671.36;221299;1275;139834;-61
2022/01/26 23:02:47;;;;;;;25.30;16.30;;;;;;;3.40;71.15;99664.03;221364;1275;139402;-60
2022/01/26 23:08:10;;;;;;;28.30;15.80;;;;;;;3.40;71.13;99666.30;221180;1276;139149;-61
2022/01/26 23:13:13;;;;;;;30.50;18.50;;;;;;;3.37;70.96;99659.19;221332;1276;140074;-62
2022/01/26 23:18:36;;;;;;;30.30;17.40;;;;;;;3.33;70.94;99650.33;221237;1276;139707;-63
2022/01/26 23:23:40;;;;;;;24.90;14.50;;;;;;;3.34;71.10;99636.63;221336;1274;139986;-62
2022/01/26 23:29:03;;;;;;;26.40;15.80;;;;;;;3.31;70.83;99633.71;221397;1275;139869;-61
2022/01/26 23:34:26;;;;;;;27.60;16.10;;;;;;;3.26;70.68;99631.89;221325;1276;138962;-60
